sensor_id;sensor_type;location;lat;lon;timestamp;temperature;humidity
23120;DHT22;11729;50.836;4.330;2024-01-25T00:00:23;10.40;99.90
23120;DHT22;11729;50.836;4.330;2024-01-25T00:02:49;10.50;99.90
23120;DHT22;11729;50.836;4.330;2024-01-25T00:05:14;10.40;99.90
23120;DHT22;11729;50.836;4.330;2024-01-25T00:07:49;10.20;99.90
23120;DHT22;11729;50.836;4.330;2024-01-25T00:10:16;10.10;99.90
23120;DHT22;11729;50.836;4.330;2024-01-25T00:12:43;10.10;99.90
23120;DHT22;11729;50.836;4.330;2024-01-25T00:15:09;10.10;99.90
23120;DHT22;11729;50.836;4.330;2024-01-25T00:17:36;10.10;99.90
23120;DHT22;11729;50.836;4.330;2024-01-25T00:20:01;10.20;99.90
23120;DHT22;11729;50.836;4.330;2024-01-25T00:22:28;10.30;99.90
23120;DHT22;11729;50.836;4.330;2024-01-25T00:24:54;10.10;99.90
23120;DHT22;11729;50.836;4.330;2024-01-25T00:27:20;10.00;99.90
23120;DHT22;11729;50.836;4.330;2024-01-25T00:29:46;10.00;99.90
23120;DHT22;11729;50.836;4.330;2024-01-25T00:32:12;10.00;99.90
23120;DHT22;11729;50.836;4.330;2024-01-25T00:34:38;10.00;99.90
23120;DHT22;11729;50.836;4.330;2024-01-25T00:37:04;9.90;99.90
23120;DHT22;11729;50.836;4.330;2024-01-25T00:39:30;9.80;99.90
23120;DHT22;11729;50.836;4.330;2024-01-25T00:42:03;9.70;99.90
23120;DHT22;11729;50.836;4.330;2024-01-25T00:44:29;9.80;99.90
23120;DHT22;11729;50.836;4.330;2024-01-25T00:46:55;9.70;99.90
23120;DHT22;11729;50.836;4.330;2024-01-25T00:49:22;9.80;99.90
23120;DHT22;11729;50.836;4.330;2024-01-25T00:51:48;9.80;99.90
23120;DHT22;11729;50.836;4.330;2024-01-25T00:54:16;9.80;99.90
23120;DHT22;11729;50.836;4.330;2024-01-25T00:56:42;9.80;99.90
23120;DHT22;11729;50.836;4.330;2024-01-25T00:59:07;9.70;99.90
23120;DHT22;11729;50.836;4.330;2024-01-25T01:01:33;9.70;99.90
23120;DHT22;11729;50.836;4.330;2024-01-25T01:04:00;9.60;99.90
23120;DHT22;11729;50.836;4.330;2024-01-25T01:06:26;9.60;99.90
23120;DHT22;11729;50.836;4.330;2024-01-25T01:08:52;9.40;99.90
23120;DHT22;11729;50.836;4.330;2024-01-25T01:11:19;9.50;99.90
23120;DHT22;11729;50.836;4.330;2024-01-25T01:13:44;9.40;99.90
23120;DHT22;11729;50.836;4.330;2024-01-25T01:16:10;9.40;99.90
23120;DHT22;11729;50.836;4.330;2024-01-25T01:18:36;9.30;99.90
23120;DHT22;11729;50.836;4.330;2024-01-25T01:21:04;9.30;99.90
23120;DHT22;11729;50.836;4.330;2024-01-25T01:23:29;9.30;99.90
23120;DHT22;11729;50.836;4.330;2024-01-25T01:25:56;9.20;99.90
23120;DHT22;11729;50.836;4.330;2024-01-25T01:28:21;9.20;99.90
23120;DHT22;11729;50.836;4.330;2024-01-25T01:30:48;9.30;99.90
23120;DHT22;11729;50.836;4.330;2024-01-25T01:33:13;9.20;99.90
23120;DHT22;11729;50.836;4.330;2024-01-25T01:35:39;9.20;99.90
23120;DHT22;11729;50.836;4.330;2024-01-25T01:38:05;9.20;99.90
23120;DHT22;11729;50.836;4.330;2024-01-25T01:40:31;9.10;99.90
23120;DHT22;11729;50.836;4.330;2024-01-25T01:43:00;9.00;99.90
23120;DHT22;11729;50.836;4.330;2024-01-25T01:45:27;9.00;99.90
23120;DHT22;11729;50.836;4.330;2024-01-25T01:47:53;8.90;99.90
23120;DHT22;11729;50.836;4.330;2024-01-25T01:50:18;8.90;99.90
23120;DHT22;11729;50.836;4.330;2024-01-25T01:52:45;8.80;99.90
23120;DHT22;11729;50.836;4.330;2024-01-25T01:55:12;8.80;99.90
23120;DHT22;11729;50.836;4.330;2024-01-25T01:57:38;8.80;99.90
23120;DHT22;11729;50.836;4.330;2024-01-25T02:00:06;8.80;99.90
23120;DHT22;11729;50.836;4.330;2024-01-25T02:02:35;8.80;99.90
23120;DHT22;11729;50.836;4.330;2024-01-25T02:05:00;8.70;99.90
23120;DHT22;11729;50.836;4.330;2024-01-25T02:07:26;8.70;99.90
23120;DHT22;11729;50.836;4.330;2024-01-25T02:09:52;8.80;99.90
23120;DHT22;11729;50.836;4.330;2024-01-25T02:12:18;8.70;99.90
23120;DHT22;11729;50.836;4.330;2024-01-25T02:14:43;8.80;99.90
23120;DHT22;11729;50.836;4.330;2024-01-25T02:17:09;8.90;99.90
23120;DHT22;11729;50.836;4.330;2024-01-25T02:19:35;8.70;99.90
23120;DHT22;11729;50.836;4.330;2024-01-25T02:22:01;8.70;99.90
23120;DHT22;11729;50.836;4.330;2024-01-25T02:24:29;8.60;99.90
23120;DHT22;11729;50.836;4.330;2024-01-25T02:26:55;8.50;99.90
23120;DHT22;11729;50.836;4.330;2024-01-25T02:29:20;8.50;99.90
23120;DHT22;11729;50.836;4.330;2024-01-25T02:31:46;8.60;99.90
23120;DHT22;11729;50.836;4.330;2024-01-25T02:34:12;8.60;99.90
23120;DHT22;11729;50.836;4.330;2024-01-25T02:36:37;8.60;99.90
23120;DHT22;11729;50.836;4.330;2024-01-25T02:39:04;8.50;99.90
23120;DHT22;11729;50.836;4.330;2024-01-25T02:41:32;8.40;99.90
23120;DHT22;11729;50.836;4.330;2024-01-25T02:43:59;8.30;99.90
23120;DHT22;11729;50.836;4.330;2024-01-25T02:46:25;8.40;99.90
23120;DHT22;11729;50.836;4.330;2024-01-25T02:48:50;8.40;99.90
23120;DHT22;11729;50.836;4.330;2024-01-25T02:51:17;8.50;99.90
23120;DHT22;11729;50.836;4.330;2024-01-25T02:53:42;8.50;99.90
23120;DHT22;11729;50.836;4.330;2024-01-25T02:56:09;8.30;99.90
23120;DHT22;11729;50.836;4.330;2024-01-25T02:58:35;8.00;99.90
23120;DHT22;11729;50.836;4.330;2024-01-25T03:01:00;8.00;99.90
23120;DHT22;11729;50.836;4.330;2024-01-25T03:03:26;8.10;99.90
23120;DHT22;11729;50.836;4.330;2024-01-25T03:05:51;8.20;99.90
23120;DHT22;11729;50.836;4.330;2024-01-25T03:08:18;8.20;99.90
23120;DHT22;11729;50.836;4.330;2024-01-25T03:10:44;8.10;99.90
23120;DHT22;11729;50.836;4.330;2024-01-25T03:13:09;8.10;99.90
23120;DHT22;11729;50.836;4.330;2024-01-25T03:15:35;8.10;99.90
23120;DHT22;11729;50.836;4.330;2024-01-25T03:18:00;8.00;99.90
23120;DHT22;11729;50.836;4.330;2024-01-25T03:20:26;8.10;99.90
23120;DHT22;11729;50.836;4.330;2024-01-25T03:22:51;8.10;99.90
23120;DHT22;11729;50.836;4.330;2024-01-25T03:25:17;8.00;99.90
23120;DHT22;11729;50.836;4.330;2024-01-25T03:27:44;8.00;99.90
23120;DHT22;11729;50.836;4.330;2024-01-25T03:30:10;8.00;99.90
23120;DHT22;11729;50.836;4.330;2024-01-25T03:32:37;8.10;99.90
23120;DHT22;11729;50.836;4.330;2024-01-25T03:35:02;8.10;99.90
23120;DHT22;11729;50.836;4.330;2024-01-25T03:37:29;8.00;99.90
23120;DHT22;11729;50.836;4.330;2024-01-25T03:39:55;7.90;99.90
23120;DHT22;11729;50.836;4.330;2024-01-25T03:42:20;7.70;99.90
23120;DHT22;11729;50.836;4.330;2024-01-25T03:44:46;7.70;99.90
23120;DHT22;11729;50.836;4.330;2024-01-25T03:47:12;7.80;99.90
23120;DHT22;11729;50.836;4.330;2024-01-25T03:49:38;7.80;99.90
23120;DHT22;11729;50.836;4.330;2024-01-25T03:52:05;7.90;99.90
23120;DHT22;11729;50.836;4.330;2024-01-25T03:54:30;7.80;99.90
23120;DHT22;11729;50.836;4.330;2024-01-25T03:56:56;7.80;99.90
23120;DHT22;11729;50.836;4.330;2024-01-25T03:59:23;7.80;99.90
23120;DHT22;11729;50.836;4.330;2024-01-25T04:01:49;7.80;99.90
23120;DHT22;11729;50.836;4.330;2024-01-25T04:04:15;7.80;99.90
23120;DHT22;11729;50.836;4.330;2024-01-25T04:06:42;7.70;99.90
23120;DHT22;11729;50.836;4.330;2024-01-25T04:09:09;7.70;99.90
23120;DHT22;11729;50.836;4.330;2024-01-25T04:11:36;7.90;99.90
23120;DHT22;11729;50.836;4.330;2024-01-25T04:14:02;7.90;99.90
23120;DHT22;11729;50.836;4.330;2024-01-25T04:16:28;7.80;99.90
23120;DHT22;11729;50.836;4.330;2024-01-25T04:18:53;7.60;99.90
23120;DHT22;11729;50.836;4.330;2024-01-25T04:21:20;7.60;99.90
23120;DHT22;11729;50.836;4.330;2024-01-25T04:23:48;7.70;99.90
23120;DHT22;11729;50.836;4.330;2024-01-25T04:26:14;7.80;99.90
23120;DHT22;11729;50.836;4.330;2024-01-25T04:28:41;7.80;99.90
23120;DHT22;11729;50.836;4.330;2024-01-25T04:31:06;7.80;99.90
23120;DHT22;11729;50.836;4.330;2024-01-25T04:33:32;7.70;99.90
23120;DHT22;11729;50.836;4.330;2024-01-25T04:35:58;7.70;99.90
23120;DHT22;11729;50.836;4.330;2024-01-25T04:38:24;7.60;99.90
23120;DHT22;11729;50.836;4.330;2024-01-25T04:40:50;7.60;99.90
23120;DHT22;11729;50.836;4.330;2024-01-25T04:43:15;7.60;99.90
23120;DHT22;11729;50.836;4.330;2024-01-25T04:45:41;7.50;99.90
23120;DHT22;11729;50.836;4.330;2024-01-25T04:48:07;7.60;99.90
23120;DHT22;11729;50.836;4.330;2024-01-25T04:50:32;7.60;99.90
23120;DHT22;11729;50.836;4.330;2024-01-25T04:52:58;7.70;99.90
23120;DHT22;11729;50.836;4.330;2024-01-25T04:55:25;7.80;99.90
23120;DHT22;11729;50.836;4.330;2024-01-25T04:57:51;7.90;99.90
23120;DHT22;11729;50.836;4.330;2024-01-25T05:00:20;7.90;99.90
23120;DHT22;11729;50.836;4.330;2024-01-25T05:02:47;7.80;99.90
23120;DHT22;11729;50.836;4.330;2024-01-25T05:05:12;7.70;99.90
23120;DHT22;11729;50.836;4.330;2024-01-25T05:07:38;7.70;99.90
23120;DHT22;11729;50.836;4.330;2024-01-25T05:10:04;7.70;99.90
23120;DHT22;11729;50.836;4.330;2024-01-25T05:12:29;7.60;99.90
23120;DHT22;11729;50.836;4.330;2024-01-25T05:14:55;7.60;99.90
23120;DHT22;11729;50.836;4.330;2024-01-25T05:17:21;7.60;99.90
23120;DHT22;11729;50.836;4.330;2024-01-25T05:19:46;7.60;99.90
23120;DHT22;11729;50.836;4.330;2024-01-25T05:22:13;7.60;99.90
23120;DHT22;11729;50.836;4.330;2024-01-25T05:24:39;7.70;99.90
23120;DHT22;11729;50.836;4.330;2024-01-25T05:27:05;7.70;99.90
23120;DHT22;11729;50.836;4.330;2024-01-25T05:29:30;7.60;99.90
23120;DHT22;11729;50.836;4.330;2024-01-25T05:31:56;7.50;99.90
23120;DHT22;11729;50.836;4.330;2024-01-25T05:34:22;7.40;99.90
23120;DHT22;11729;50.836;4.330;2024-01-25T05:36:48;7.40;99.90
23120;DHT22;11729;50.836;4.330;2024-01-25T05:39:15;7.40;99.90
23120;DHT22;11729;50.836;4.330;2024-01-25T05:41:40;7.50;99.90
23120;DHT22;11729;50.836;4.330;2024-01-25T05:44:06;7.50;99.90
23120;DHT22;11729;50.836;4.330;2024-01-25T05:46:31;7.60;99.90
23120;DHT22;11729;50.836;4.330;2024-01-25T05:48:57;7.60;99.90
23120;DHT22;11729;50.836;4.330;2024-01-25T05:51:22;7.70;99.90
23120;DHT22;11729;50.836;4.330;2024-01-25T05:53:48;7.80;99.90
23120;DHT22;11729;50.836;4.330;2024-01-25T05:56:14;7.80;99.90
23120;DHT22;11729;50.836;4.330;2024-01-25T05:58:41;7.60;99.90
23120;DHT22;11729;50.836;4.330;2024-01-25T06:01:07;7.50;99.90
23120;DHT22;11729;50.836;4.330;2024-01-25T06:03:32;7.50;99.90
23120;DHT22;11729;50.836;4.330;2024-01-25T06:05:59;7.50;99.90
23120;DHT22;11729;50.836;4.330;2024-01-25T06:08:25;7.60;99.90
23120;DHT22;11729;50.836;4.330;2024-01-25T06:10:50;7.50;99.90
23120;DHT22;11729;50.836;4.330;2024-01-25T06:13:16;7.60;99.90
23120;DHT22;11729;50.836;4.330;2024-01-25T06:15:42;7.50;99.90
23120;DHT22;11729;50.836;4.330;2024-01-25T06:18:09;7.30;99.90
23120;DHT22;11729;50.836;4.330;2024-01-25T06:20:36;7.30;99.90
23120;DHT22;11729;50.836;4.330;2024-01-25T06:23:02;7.40;99.90
23120;DHT22;11729;50.836;4.330;2024-01-25T06:25:28;7.60;99.90
23120;DHT22;11729;50.836;4.330;2024-01-25T06:27:57;7.60;99.90
23120;DHT22;11729;50.836;4.330;2024-01-25T06:30:25;7.60;99.90
23120;DHT22;11729;50.836;4.330;2024-01-25T06:32:50;7.50;99.90
23120;DHT22;11729;50.836;4.330;2024-01-25T06:35:16;7.40;99.90
23120;DHT22;11729;50.836;4.330;2024-01-25T06:37:44;7.40;99.90
23120;DHT22;11729;50.836;4.330;2024-01-25T06:40:11;7.50;99.90
23120;DHT22;11729;50.836;4.330;2024-01-25T06:42:37;7.60;99.90
23120;DHT22;11729;50.836;4.330;2024-01-25T06:45:04;7.70;99.90
23120;DHT22;11729;50.836;4.330;2024-01-25T06:47:32;7.80;99.90
23120;DHT22;11729;50.836;4.330;2024-01-25T06:49:58;7.80;99.90
23120;DHT22;11729;50.836;4.330;2024-01-25T06:52:24;7.70;99.90
23120;DHT22;11729;50.836;4.330;2024-01-25T06:54:50;7.70;99.90
23120;DHT22;11729;50.836;4.330;2024-01-25T06:57:16;7.70;99.90
23120;DHT22;11729;50.836;4.330;2024-01-25T06:59:42;7.80;99.90
23120;DHT22;11729;50.836;4.330;2024-01-25T07:02:08;7.80;99.90
23120;DHT22;11729;50.836;4.330;2024-01-25T07:04:34;7.80;99.90
23120;DHT22;11729;50.836;4.330;2024-01-25T07:07:01;7.80;99.90
23120;DHT22;11729;50.836;4.330;2024-01-25T07:09:28;7.60;99.90
23120;DHT22;11729;50.836;4.330;2024-01-25T07:11:54;7.50;99.90
23120;DHT22;11729;50.836;4.330;2024-01-25T07:14:21;7.60;99.90
23120;DHT22;11729;50.836;4.330;2024-01-25T07:16:50;7.70;99.90
23120;DHT22;11729;50.836;4.330;2024-01-25T07:19:17;8.00;99.90
23120;DHT22;11729;50.836;4.330;2024-01-25T07:21:43;8.10;99.90
23120;DHT22;11729;50.836;4.330;2024-01-25T07:24:11;8.10;99.90
23120;DHT22;11729;50.836;4.330;2024-01-25T07:26:37;7.90;99.90
23120;DHT22;11729;50.836;4.330;2024-01-25T07:29:04;7.90;99.90
23120;DHT22;11729;50.836;4.330;2024-01-25T07:31:30;8.00;99.90
23120;DHT22;11729;50.836;4.330;2024-01-25T07:33:56;8.20;99.90
23120;DHT22;11729;50.836;4.330;2024-01-25T07:36:22;8.30;99.90
23120;DHT22;11729;50.836;4.330;2024-01-25T07:38:47;8.30;99.90
23120;DHT22;11729;50.836;4.330;2024-01-25T07:41:19;8.30;99.90
23120;DHT22;11729;50.836;4.330;2024-01-25T07:43:45;8.20;99.90
23120;DHT22;11729;50.836;4.330;2024-01-25T07:46:10;8.00;99.90
23120;DHT22;11729;50.836;4.330;2024-01-25T07:48:40;8.00;99.90
23120;DHT22;11729;50.836;4.330;2024-01-25T07:51:13;8.10;99.90
23120;DHT22;11729;50.836;4.330;2024-01-25T07:53:39;8.10;99.90
23120;DHT22;11729;50.836;4.330;2024-01-25T07:56:09;8.00;99.90
23120;DHT22;11729;50.836;4.330;2024-01-25T07:58:36;8.00;99.90
23120;DHT22;11729;50.836;4.330;2024-01-25T08:01:05;8.10;99.90
23120;DHT22;11729;50.836;4.330;2024-01-25T08:03:32;8.20;99.90
23120;DHT22;11729;50.836;4.330;2024-01-25T08:06:02;8.20;99.90
23120;DHT22;11729;50.836;4.330;2024-01-25T08:08:31;8.10;99.90
23120;DHT22;11729;50.836;4.330;2024-01-25T08:10:58;8.10;99.90
23120;DHT22;11729;50.836;4.330;2024-01-25T08:13:25;8.20;99.90
23120;DHT22;11729;50.836;4.330;2024-01-25T08:15:53;8.00;99.90
23120;DHT22;11729;50.836;4.330;2024-01-25T08:18:19;8.00;99.90
23120;DHT22;11729;50.836;4.330;2024-01-25T08:20:46;8.00;99.90
23120;DHT22;11729;50.836;4.330;2024-01-25T08:23:14;8.10;99.90
23120;DHT22;11729;50.836;4.330;2024-01-25T08:25:40;8.10;99.90
23120;DHT22;11729;50.836;4.330;2024-01-25T08:28:06;8.20;99.90
23120;DHT22;11729;50.836;4.330;2024-01-25T08:30:32;8.30;99.90
23120;DHT22;11729;50.836;4.330;2024-01-25T08:32:59;8.30;99.90
23120;DHT22;11729;50.836;4.330;2024-01-25T08:35:31;8.20;99.90
23120;DHT22;11729;50.836;4.330;2024-01-25T08:37:58;8.20;99.90
23120;DHT22;11729;50.836;4.330;2024-01-25T08:40:25;8.30;99.90
23120;DHT22;11729;50.836;4.330;2024-01-25T08:42:50;8.30;99.90
23120;DHT22;11729;50.836;4.330;2024-01-25T08:45:16;8.50;99.90
23120;DHT22;11729;50.836;4.330;2024-01-25T08:47:45;8.50;99.90
23120;DHT22;11729;50.836;4.330;2024-01-25T08:50:11;8.50;99.90
23120;DHT22;11729;50.836;4.330;2024-01-25T08:52:38;8.50;99.90
23120;DHT22;11729;50.836;4.330;2024-01-25T08:55:06;8.70;99.90
23120;DHT22;11729;50.836;4.330;2024-01-25T08:57:35;8.70;99.90
23120;DHT22;11729;50.836;4.330;2024-01-25T09:00:01;8.80;99.90
23120;DHT22;11729;50.836;4.330;2024-01-25T09:02:27;8.80;99.90
23120;DHT22;11729;50.836;4.330;2024-01-25T09:04:55;8.90;99.90
23120;DHT22;11729;50.836;4.330;2024-01-25T09:07:20;8.90;99.90
23120;DHT22;11729;50.836;4.330;2024-01-25T09:09:46;8.90;99.90
23120;DHT22;11729;50.836;4.330;2024-01-25T09:12:13;8.80;99.90
23120;DHT22;11729;50.836;4.330;2024-01-25T09:14:40;8.80;99.90
23120;DHT22;11729;50.836;4.330;2024-01-25T09:17:05;8.90;99.90
23120;DHT22;11729;50.836;4.330;2024-01-25T09:19:31;8.80;99.90
23120;DHT22;11729;50.836;4.330;2024-01-25T09:21:57;8.80;99.90
23120;DHT22;11729;50.836;4.330;2024-01-25T09:24:25;9.00;99.90
23120;DHT22;11729;50.836;4.330;2024-01-25T09:26:50;9.00;99.90
23120;DHT22;11729;50.836;4.330;2024-01-25T09:29:16;9.10;99.90
23120;DHT22;11729;50.836;4.330;2024-01-25T09:31:42;9.10;99.90
23120;DHT22;11729;50.836;4.330;2024-01-25T09:34:07;9.30;99.90
23120;DHT22;11729;50.836;4.330;2024-01-25T09:36:35;9.20;99.90
23120;DHT22;11729;50.836;4.330;2024-01-25T09:39:01;9.10;99.90
23120;DHT22;11729;50.836;4.330;2024-01-25T09:41:26;9.10;99.90
23120;DHT22;11729;50.836;4.330;2024-01-25T09:43:52;9.00;99.90
23120;DHT22;11729;50.836;4.330;2024-01-25T09:46:18;9.00;99.90
23120;DHT22;11729;50.836;4.330;2024-01-25T09:48:45;8.80;99.90
23120;DHT22;11729;50.836;4.330;2024-01-25T09:51:13;8.70;99.90
23120;DHT22;11729;50.836;4.330;2024-01-25T09:53:40;8.80;99.90
23120;DHT22;11729;50.836;4.330;2024-01-25T09:56:08;9.00;99.90
23120;DHT22;11729;50.836;4.330;2024-01-25T10:01:02;9.50;99.90
23120;DHT22;11729;50.836;4.330;2024-01-25T10:03:29;9.60;99.90
23120;DHT22;11729;50.836;4.330;2024-01-25T10:05:56;9.70;99.90
23120;DHT22;11729;50.836;4.330;2024-01-25T10:08:22;10.00;99.90
23120;DHT22;11729;50.836;4.330;2024-01-25T10:10:50;10.20;99.90
23120;DHT22;11729;50.836;4.330;2024-01-25T10:13:18;10.50;99.90
23120;DHT22;11729;50.836;4.330;2024-01-25T10:15:44;10.10;99.90
23120;DHT22;11729;50.836;4.330;2024-01-25T10:18:15;9.80;99.90
23120;DHT22;11729;50.836;4.330;2024-01-25T10:20:42;9.80;99.90
23120;DHT22;11729;50.836;4.330;2024-01-25T10:23:09;10.00;99.90
23120;DHT22;11729;50.836;4.330;2024-01-25T10:25:35;10.20;99.90
23120;DHT22;11729;50.836;4.330;2024-01-25T10:28:05;10.20;99.90
23120;DHT22;11729;50.836;4.330;2024-01-25T10:30:35;10.50;99.90
23120;DHT22;11729;50.836;4.330;2024-01-25T10:33:02;10.60;99.90
23120;DHT22;11729;50.836;4.330;2024-01-25T10:35:28;10.70;99.90
23120;DHT22;11729;50.836;4.330;2024-01-25T10:37:55;10.90;99.90
23120;DHT22;11729;50.836;4.330;2024-01-25T10:40:22;10.90;99.90
23120;DHT22;11729;50.836;4.330;2024-01-25T10:42:48;11.00;99.90
23120;DHT22;11729;50.836;4.330;2024-01-25T10:45:16;10.80;99.90
23120;DHT22;11729;50.836;4.330;2024-01-25T10:47:43;10.70;99.90
23120;DHT22;11729;50.836;4.330;2024-01-25T10:50:13;10.70;99.90
23120;DHT22;11729;50.836;4.330;2024-01-25T10:52:40;10.60;99.90
23120;DHT22;11729;50.836;4.330;2024-01-25T10:55:07;10.60;99.90
23120;DHT22;11729;50.836;4.330;2024-01-25T10:57:44;10.40;99.90
23120;DHT22;11729;50.836;4.330;2024-01-25T11:00:12;10.50;99.90
23120;DHT22;11729;50.836;4.330;2024-01-25T11:02:39;10.80;99.90
23120;DHT22;11729;50.836;4.330;2024-01-25T11:05:14;10.90;99.90
23120;DHT22;11729;50.836;4.330;2024-01-25T11:07:48;11.00;99.90
23120;DHT22;11729;50.836;4.330;2024-01-25T11:10:19;11.20;99.90
23120;DHT22;11729;50.836;4.330;2024-01-25T11:12:49;11.10;99.90
23120;DHT22;11729;50.836;4.330;2024-01-25T11:15:21;10.90;99.90
23120;DHT22;11729;50.836;4.330;2024-01-25T11:17:54;11.00;99.90
23120;DHT22;11729;50.836;4.330;2024-01-25T11:20:24;11.10;99.90
23120;DHT22;11729;50.836;4.330;2024-01-25T11:22:59;11.00;99.90
23120;DHT22;11729;50.836;4.330;2024-01-25T11:25:28;11.00;99.90
23120;DHT22;11729;50.836;4.330;2024-01-25T11:27:55;10.90;99.90
23120;DHT22;11729;50.836;4.330;2024-01-25T11:30:21;10.80;99.90
23120;DHT22;11729;50.836;4.330;2024-01-25T11:32:47;10.80;99.90
23120;DHT22;11729;50.836;4.330;2024-01-25T11:35:15;10.90;99.90
23120;DHT22;11729;50.836;4.330;2024-01-25T11:37:46;11.00;99.90
23120;DHT22;11729;50.836;4.330;2024-01-25T11:40:13;11.00;99.90
23120;DHT22;11729;50.836;4.330;2024-01-25T11:42:42;11.10;99.90
23120;DHT22;11729;50.836;4.330;2024-01-25T11:45:11;11.10;99.90
23120;DHT22;11729;50.836;4.330;2024-01-25T11:47:37;11.20;99.90
23120;DHT22;11729;50.836;4.330;2024-01-25T11:50:04;11.10;99.90
23120;DHT22;11729;50.836;4.330;2024-01-25T11:52:31;11.10;99.90
23120;DHT22;11729;50.836;4.330;2024-01-25T11:55:05;11.00;99.90
23120;DHT22;11729;50.836;4.330;2024-01-25T11:57:32;11.00;99.90
23120;DHT22;11729;50.836;4.330;2024-01-25T11:59:59;11.00;99.90
23120;DHT22;11729;50.836;4.330;2024-01-25T12:02:26;11.20;99.90
23120;DHT22;11729;50.836;4.330;2024-01-25T12:04:52;11.10;99.90
23120;DHT22;11729;50.836;4.330;2024-01-25T12:07:20;11.00;99.90
23120;DHT22;11729;50.836;4.330;2024-01-25T12:09:59;11.00;99.90
23120;DHT22;11729;50.836;4.330;2024-01-25T12:12:26;10.90;99.90
23120;DHT22;11729;50.836;4.330;2024-01-25T12:14:57;11.00;99.90
23120;DHT22;11729;50.836;4.330;2024-01-25T12:17:23;11.00;99.90
23120;DHT22;11729;50.836;4.330;2024-01-25T12:19:48;11.10;99.90
23120;DHT22;11729;50.836;4.330;2024-01-25T12:22:20;11.20;99.90
23120;DHT22;11729;50.836;4.330;2024-01-25T12:24:46;11.00;99.90
23120;DHT22;11729;50.836;4.330;2024-01-25T12:27:15;11.00;99.90
23120;DHT22;11729;50.836;4.330;2024-01-25T12:29:40;11.00;99.90
23120;DHT22;11729;50.836;4.330;2024-01-25T12:32:06;11.00;99.90
23120;DHT22;11729;50.836;4.330;2024-01-25T12:34:32;10.90;99.90
23120;DHT22;11729;50.836;4.330;2024-01-25T12:36:57;10.80;99.90
23120;DHT22;11729;50.836;4.330;2024-01-25T12:39:24;10.80;99.90
23120;DHT22;11729;50.836;4.330;2024-01-25T12:41:51;10.90;99.90
23120;DHT22;11729;50.836;4.330;2024-01-25T12:44:17;10.90;99.90
23120;DHT22;11729;50.836;4.330;2024-01-25T12:46:42;11.10;99.90
23120;DHT22;11729;50.836;4.330;2024-01-25T12:49:08;11.10;99.90
23120;DHT22;11729;50.836;4.330;2024-01-25T12:51:34;11.00;99.90
23120;DHT22;11729;50.836;4.330;2024-01-25T12:53:59;11.00;99.90
23120;DHT22;11729;50.836;4.330;2024-01-25T12:56:25;10.70;99.90
23120;DHT22;11729;50.836;4.330;2024-01-25T12:58:50;10.70;99.90
23120;DHT22;11729;50.836;4.330;2024-01-25T13:01:16;10.70;99.90
23120;DHT22;11729;50.836;4.330;2024-01-25T13:03:42;10.80;99.90
23120;DHT22;11729;50.836;4.330;2024-01-25T13:06:08;10.90;99.90
23120;DHT22;11729;50.836;4.330;2024-01-25T13:08:33;11.00;99.90
23120;DHT22;11729;50.836;4.330;2024-01-25T13:10:59;11.00;99.90
23120;DHT22;11729;50.836;4.330;2024-01-25T13:13:24;11.00;99.90
23120;DHT22;11729;50.836;4.330;2024-01-25T13:15:51;11.10;99.90
23120;DHT22;11729;50.836;4.330;2024-01-25T13:18:16;11.20;99.90
23120;DHT22;11729;50.836;4.330;2024-01-25T13:20:42;11.20;99.90
23120;DHT22;11729;50.836;4.330;2024-01-25T13:23:07;11.10;99.90
23120;DHT22;11729;50.836;4.330;2024-01-25T13:25:33;11.10;99.90
23120;DHT22;11729;50.836;4.330;2024-01-25T13:28:00;11.20;99.90
23120;DHT22;11729;50.836;4.330;2024-01-25T13:30:25;11.20;99.90
23120;DHT22;11729;50.836;4.330;2024-01-25T13:32:51;11.20;99.90
23120;DHT22;11729;50.836;4.330;2024-01-25T13:35:16;11.00;99.90
23120;DHT22;11729;50.836;4.330;2024-01-25T13:37:42;11.00;99.90
23120;DHT22;11729;50.836;4.330;2024-01-25T13:40:08;11.20;99.90
23120;DHT22;11729;50.836;4.330;2024-01-25T13:42:34;11.20;99.90
23120;DHT22;11729;50.836;4.330;2024-01-25T13:44:59;11.30;99.90
23120;DHT22;11729;50.836;4.330;2024-01-25T13:47:26;11.40;99.90
23120;DHT22;11729;50.836;4.330;2024-01-25T13:49:52;11.40;99.90
23120;DHT22;11729;50.836;4.330;2024-01-25T13:52:18;11.30;99.90
23120;DHT22;11729;50.836;4.330;2024-01-25T13:54:49;11.20;99.90
23120;DHT22;11729;50.836;4.330;2024-01-25T13:57:15;11.20;99.90
23120;DHT22;11729;50.836;4.330;2024-01-25T13:59:41;11.40;99.90
23120;DHT22;11729;50.836;4.330;2024-01-25T14:02:08;11.50;99.90
23120;DHT22;11729;50.836;4.330;2024-01-25T14:04:34;11.50;99.90
23120;DHT22;11729;50.836;4.330;2024-01-25T14:06:59;11.50;99.90
23120;DHT22;11729;50.836;4.330;2024-01-25T14:09:28;11.40;99.90
23120;DHT22;11729;50.836;4.330;2024-01-25T14:11:55;11.50;99.90
23120;DHT22;11729;50.836;4.330;2024-01-25T14:14:21;11.60;99.90
23120;DHT22;11729;50.836;4.330;2024-01-25T14:16:47;11.60;99.90
23120;DHT22;11729;50.836;4.330;2024-01-25T14:19:12;11.50;99.90
23120;DHT22;11729;50.836;4.330;2024-01-25T14:21:38;11.50;99.90
23120;DHT22;11729;50.836;4.330;2024-01-25T14:24:04;11.40;99.90
23120;DHT22;11729;50.836;4.330;2024-01-25T14:26:29;11.40;99.90
23120;DHT22;11729;50.836;4.330;2024-01-25T14:28:55;11.40;99.90
23120;DHT22;11729;50.836;4.330;2024-01-25T14:31:21;11.40;99.90
23120;DHT22;11729;50.836;4.330;2024-01-25T14:33:46;11.50;99.90
23120;DHT22;11729;50.836;4.330;2024-01-25T14:36:12;11.50;99.90
23120;DHT22;11729;50.836;4.330;2024-01-25T14:38:40;11.60;99.90
23120;DHT22;11729;50.836;4.330;2024-01-25T14:41:09;11.50;99.90
23120;DHT22;11729;50.836;4.330;2024-01-25T14:43:39;11.40;99.90
23120;DHT22;11729;50.836;4.330;2024-01-25T14:46:06;11.30;99.90
23120;DHT22;11729;50.836;4.330;2024-01-25T14:48:31;11.30;99.90
23120;DHT22;11729;50.836;4.330;2024-01-25T14:50:57;11.40;99.90
23120;DHT22;11729;50.836;4.330;2024-01-25T14:53:23;11.50;99.90
23120;DHT22;11729;50.836;4.330;2024-01-25T14:55:48;11.50;99.90
23120;DHT22;11729;50.836;4.330;2024-01-25T14:58:14;11.40;99.90
23120;DHT22;11729;50.836;4.330;2024-01-25T15:00:40;11.40;99.90
23120;DHT22;11729;50.836;4.330;2024-01-25T15:03:06;11.40;99.90
23120;DHT22;11729;50.836;4.330;2024-01-25T15:05:32;11.40;99.90
23120;DHT22;11729;50.836;4.330;2024-01-25T15:07:58;11.40;99.90
23120;DHT22;11729;50.836;4.330;2024-01-25T15:10:24;11.50;99.90
23120;DHT22;11729;50.836;4.330;2024-01-25T15:12:50;11.50;99.90
23120;DHT22;11729;50.836;4.330;2024-01-25T15:15:19;11.60;99.90
23120;DHT22;11729;50.836;4.330;2024-01-25T15:17:45;11.60;99.90
23120;DHT22;11729;50.836;4.330;2024-01-25T15:20:11;11.50;99.90
23120;DHT22;11729;50.836;4.330;2024-01-25T15:22:37;11.60;99.90
23120;DHT22;11729;50.836;4.330;2024-01-25T15:25:04;11.60;99.90
23120;DHT22;11729;50.836;4.330;2024-01-25T15:27:30;11.60;99.90
23120;DHT22;11729;50.836;4.330;2024-01-25T15:29:56;11.50;99.90
23120;DHT22;11729;50.836;4.330;2024-01-25T15:32:24;11.50;99.90
23120;DHT22;11729;50.836;4.330;2024-01-25T15:34:52;11.50;99.90
23120;DHT22;11729;50.836;4.330;2024-01-25T15:37:17;11.60;99.90